createdAt,value
2022-08-05T00:01:48.366Z,24.70
2022-08-05T00:04:19.696Z,24.70
2022-08-05T00:06:51.681Z,24.70
2022-08-05T00:09:20.688Z,24.60
2022-08-05T00:11:55.803Z,24.70
2022-08-05T00:14:29.103Z,24.70
2022-08-05T00:16:58.494Z,24.70
2022-08-05T00:19:33.374Z,24.70
2022-08-05T00:22:02.765Z,24.70
2022-08-05T00:24:32.834Z,24.70
2022-08-05T00:27:04.531Z,24.60
2022-08-05T00:29:38.789Z,24.60
2022-08-05T00:32:12.278Z,24.60
2022-08-05T00:35:03.445Z,24.60
2022-08-05T00:37:51.322Z,24.60
2022-08-05T00:40:26.780Z,24.60
2022-08-05T00:42:58.326Z,24.60
2022-08-05T00:45:38.446Z,24.60
2022-08-05T00:48:08.260Z,24.60
2022-08-05T00:50:41.373Z,24.50
2022-08-05T00:53:45.329Z,24.50
2022-08-05T00:55:59.854Z,24.50
2022-08-05T00:58:28.845Z,24.60
2022-08-05T01:00:57.686Z,24.50
2022-08-05T01:03:30.857Z,24.50
2022-08-05T01:06:05.349Z,24.50
2022-08-05T01:08:42.737Z,24.50
2022-08-05T01:11:22.535Z,24.50
2022-08-05T01:14:08.735Z,24.50
2022-08-05T01:16:41.829Z,24.60
2022-08-05T01:19:36.795Z,24.60
2022-08-05T01:22:24.438Z,24.60
2022-08-05T01:25:14.201Z,24.60
2022-08-05T01:28:00.796Z,24.60
2022-08-05T01:30:34.023Z,24.60
2022-08-05T01:33:04.326Z,24.60
2022-08-05T01:35:52.038Z,24.50
2022-08-05T01:38:27.101Z,24.50
2022-08-05T01:40:59.020Z,24.50
2022-08-05T01:43:30.046Z,24.40
2022-08-05T01:46:06.958Z,24.40
2022-08-05T01:48:45.836Z,24.40
2022-08-05T01:51:37.709Z,24.30
2022-08-05T01:54:07.395Z,24.30
2022-08-05T01:58:12.771Z,24.20
2022-08-05T01:59:32.358Z,24.20
2022-08-05T02:02:04.351Z,24.20
2022-08-05T02:04:40.607Z,24.10
2022-08-05T02:07:30.401Z,24.10
2022-08-05T02:09:59.481Z,24.10
2022-08-05T02:12:35.860Z,24.10
2022-08-05T02:15:12.122Z,24.00
2022-08-05T02:18:31.449Z,24.00
2022-08-05T02:20:39.045Z,24.00
2022-08-05T02:23:30.551Z,23.90
2022-08-05T02:26:04.485Z,23.90
2022-08-05T02:28:41.558Z,23.80
2022-08-05T02:31:14.521Z,23.80
2022-08-05T02:33:48.414Z,23.80
2022-08-05T02:36:19.211Z,23.80
2022-08-05T02:38:52.818Z,23.70
2022-08-05T02:41:22.973Z,23.70
2022-08-05T02:44:06.098Z,23.70
2022-08-05T02:46:53.595Z,23.70
2022-08-05T02:49:36.179Z,23.70
2022-08-05T02:52:09.295Z,23.70
2022-08-05T02:54:41.021Z,23.70
2022-08-05T02:58:08.519Z,23.70
2022-08-05T03:00:01.435Z,23.70
2022-08-05T03:02:34.686Z,23.70
2022-08-05T03:05:03.401Z,24.10
2022-08-05T03:07:59.272Z,23.70
2022-08-05T03:10:25.061Z,23.60
2022-08-05T03:12:55.214Z,23.60
2022-08-05T03:15:24.298Z,23.60
2022-08-05T03:17:57.741Z,23.50
2022-08-05T03:20:26.684Z,23.50
2022-08-05T03:22:57.500Z,23.50
2022-08-05T03:26:03.800Z,23.50
2022-08-05T03:28:18.737Z,23.50
2022-08-05T03:30:50.811Z,23.40
2022-08-05T03:33:21.860Z,23.30
2022-08-05T03:35:51.634Z,23.30
2022-08-05T03:38:23.816Z,23.30
2022-08-05T03:41:08.508Z,23.20
2022-08-05T03:44:08.666Z,23.20
2022-08-05T03:46:29.936Z,23.20
2022-08-05T03:49:02.463Z,23.20
2022-08-05T03:52:37.323Z,23.10
2022-08-05T03:55:51.581Z,23.10
2022-08-05T03:57:17.954Z,23.10
2022-08-05T03:59:54.844Z,23.10
2022-08-05T04:02:38.681Z,23.10
2022-08-05T04:05:16.365Z,23.10
2022-08-05T04:07:58.029Z,23.20
2022-08-05T04:10:30.922Z,23.20
2022-08-05T04:13:04.227Z,23.20
2022-08-05T04:15:36.240Z,23.30
2022-08-05T04:18:07.153Z,23.20
2022-08-05T04:20:41.223Z,23.30
2022-08-05T04:23:12.553Z,23.30
2022-08-05T04:26:00.295Z,23.40
2022-08-05T04:28:31.709Z,23.40
2022-08-05T04:31:01.448Z,23.40
2022-08-05T04:33:54.626Z,23.50
2022-08-05T04:36:46.272Z,23.60
2022-08-05T04:39:09.870Z,23.70
2022-08-05T04:41:40.023Z,23.80
2022-08-05T04:44:09.988Z,23.80
2022-08-05T04:46:39.004Z,23.80
2022-08-05T04:49:14.653Z,23.90
2022-08-05T04:51:45.770Z,24.00
2022-08-05T04:54:15.968Z,24.00
2022-08-05T04:56:44.489Z,24.10
2022-08-05T04:59:23.983Z,24.20
2022-08-05T05:02:06.744Z,24.20
2022-08-05T05:04:38.127Z,24.20
2022-08-05T05:07:09.580Z,24.30
2022-08-05T05:09:56.748Z,24.30
2022-08-05T05:12:27.343Z,24.40
2022-08-05T05:14:56.507Z,24.40
2022-08-05T05:17:56.159Z,24.50
2022-08-05T05:20:15.220Z,24.50
2022-08-05T05:22:50.542Z,24.60
2022-08-05T05:25:41.074Z,24.60
2022-08-05T05:28:09.949Z,24.60
2022-08-05T05:30:38.523Z,24.70
2022-08-05T05:33:16.278Z,24.80
2022-08-05T05:35:47.093Z,24.80
2022-08-05T05:38:22.387Z,24.90
2022-08-05T05:40:56.276Z,24.90
2022-08-05T05:43:54.613Z,25.10
2022-08-05T05:46:16.043Z,25.10
2022-08-05T05:48:47.931Z,25.20
2022-08-05T05:51:21.283Z,25.30
2022-08-05T05:53:57.392Z,25.40
2022-08-05T05:56:32.675Z,25.40
2022-08-05T05:59:05.148Z,25.50
2022-08-05T06:01:57.884Z,25.60
2022-08-05T06:04:26.839Z,25.70
2022-08-05T06:06:55.704Z,25.80
2022-08-05T06:10:01.480Z,25.90
2022-08-05T06:12:35.452Z,26.00
2022-08-05T06:15:23.700Z,26.10
2022-08-05T06:17:54.607Z,26.20
2022-08-05T06:20:23.727Z,26.40
2022-08-05T06:22:52.187Z,26.40
2022-08-05T06:25:58.964Z,26.50
2022-08-05T06:28:21.542Z,26.50
2022-08-05T06:30:50.594Z,26.70
2022-08-05T06:33:20.308Z,26.80
2022-08-05T06:36:10.185Z,26.80
2022-08-05T06:38:38.925Z,27.00
2022-08-05T06:41:17.275Z,27.00
2022-08-05T06:43:57.999Z,27.20
2022-08-05T06:46:29.836Z,27.20
2022-08-05T06:49:01.119Z,27.30
2022-08-05T06:51:32.139Z,27.30
2022-08-05T06:54:02.081Z,27.40
2022-08-05T06:56:34.511Z,27.40
2022-08-05T06:59:04.011Z,27.50
2022-08-05T07:01:40.675Z,27.60
2022-08-05T07:04:11.020Z,27.70
2022-08-05T07:06:42.724Z,27.70
2022-08-05T07:09:11.304Z,27.80
2022-08-05T07:11:49.444Z,27.90
2022-08-05T07:14:37.675Z,28.00
2022-08-05T07:17:58.981Z,28.00
2022-08-05T07:22:45.735Z,28.20
2022-08-05T07:25:54.182Z,28.20
2022-08-05T07:28:11.508Z,28.30
2022-08-05T07:30:41.130Z,28.40
2022-08-05T07:33:16.007Z,28.50
2022-08-05T07:36:05.228Z,28.60
2022-08-05T07:38:42.655Z,28.70
2022-08-05T07:42:08.001Z,28.80
2022-08-05T07:44:20.870Z,28.90
2022-08-05T07:46:50.680Z,29.00
2022-08-05T07:49:20.715Z,29.00
2022-08-05T07:51:54.336Z,29.10
2022-08-05T07:54:30.735Z,29.10
2022-08-05T07:57:22.667Z,29.20
2022-08-05T07:59:53.704Z,29.30
2022-08-05T08:02:26.618Z,29.50
2022-08-05T08:05:18.274Z,29.50
2022-08-05T08:07:59.838Z,29.60
2022-08-05T08:10:30.315Z,29.70
2022-08-05T08:12:59.333Z,29.70
2022-08-05T08:16:33.709Z,29.80
2022-08-05T08:18:23.110Z,29.90
2022-08-05T08:21:02.504Z,30.00
2022-08-05T08:24:02.055Z,30.10
2022-08-05T08:26:29.604Z,30.10
2022-08-05T08:29:21.960Z,30.10
2022-08-05T08:31:49.267Z,30.20
2022-08-05T08:34:36.146Z,30.20
2022-08-05T08:37:05.622Z,30.30
2022-08-05T08:39:37.418Z,30.50
2022-08-05T08:42:15.255Z,30.40
2022-08-05T08:45:19.418Z,30.40
2022-08-05T08:48:07.113Z,30.50
2022-08-05T08:51:03.182Z,30.60
2022-08-05T08:53:26.852Z,30.60
2022-08-05T08:56:04.981Z,30.70
2022-08-05T08:58:43.192Z,30.80
2022-08-05T09:01:15.762Z,30.70
2022-08-05T09:03:47.415Z,30.80
2022-08-05T09:06:21.069Z,30.90
2022-08-05T09:09:11.605Z,30.90
2022-08-05T09:11:51.638Z,31.00
2022-08-05T09:14:58.319Z,31.00
2022-08-05T09:17:40.052Z,31.10
2022-08-05T09:20:05.275Z,31.20
2022-08-05T09:22:51.799Z,31.20
2022-08-05T09:25:24.530Z,31.30
2022-08-05T09:28:14.030Z,31.40
2022-08-05T09:30:56.943Z,31.40
2022-08-05T09:33:35.119Z,31.50
2022-08-05T09:36:11.531Z,31.50
2022-08-05T09:38:40.486Z,31.60
2022-08-05T09:41:10.216Z,31.60
2022-08-05T09:43:41.158Z,31.60
2022-08-05T09:46:28.043Z,31.70
2022-08-05T09:49:07.131Z,31.70
2022-08-05T09:51:39.890Z,31.80
2022-08-05T09:54:10.075Z,31.80
2022-08-05T09:56:39.778Z,31.90
2022-08-05T09:59:10.054Z,32.00
2022-08-05T10:01:47.618Z,32.00
2022-08-05T10:04:17.521Z,32.10
2022-08-05T10:06:58.888Z,32.10
2022-08-05T10:09:29.528Z,32.20
2022-08-05T10:12:30.801Z,32.30
2022-08-05T10:15:16.395Z,32.40
2022-08-05T10:17:56.645Z,32.40
2022-08-05T10:20:26.792Z,32.60
2022-08-05T10:22:58.518Z,32.70
2022-08-05T10:25:27.113Z,32.70
2022-08-05T10:28:13.528Z,32.70
2022-08-05T10:32:48.183Z,32.70
2022-08-05T10:33:35.235Z,32.80
2022-08-05T10:36:05.658Z,32.90
2022-08-05T10:38:36.803Z,33.00
2022-08-05T10:41:12.418Z,33.00
2022-08-05T10:43:48.689Z,33.10
2022-08-05T10:46:23.771Z,33.10
2022-08-05T10:49:01.463Z,33.00
2022-08-05T10:51:57.469Z,33.10
2022-08-05T10:54:56.137Z,33.00
2022-08-05T10:57:32.325Z,33.10
2022-08-05T11:00:16.095Z,33.20
2022-08-05T11:03:25.731Z,33.20
2022-08-05T11:06:15.128Z,33.20
2022-08-05T11:08:59.916Z,33.30
2022-08-05T11:11:44.460Z,33.30
2022-08-05T11:14:57.683Z,33.40
2022-08-05T11:17:59.655Z,33.50
2022-08-05T11:20:34.688Z,33.80
2022-08-05T11:23:25.314Z,34.20
2022-08-05T11:26:04.344Z,34.60
2022-08-05T11:28:59.409Z,34.80
2022-08-05T11:31:53.979Z,35.00
2022-08-05T11:34:37.450Z,35.00
2022-08-05T11:38:37.005Z,35.10
2022-08-05T11:39:55.465Z,35.20
2022-08-05T11:42:29.527Z,35.30
2022-08-05T11:45:03.673Z,35.40
2022-08-05T11:47:49.690Z,35.40
2022-08-05T11:50:19.179Z,35.40
2022-08-05T11:52:49.562Z,35.40
2022-08-05T11:55:19.937Z,35.50
2022-08-05T11:58:09.811Z,35.40
2022-08-05T12:00:39.144Z,35.50
2022-08-05T12:03:24.069Z,35.50
2022-08-05T12:06:19.309Z,35.50
2022-08-05T12:08:51.046Z,35.60
2022-08-05T12:11:21.124Z,35.70
2022-08-05T12:13:58.768Z,35.70
2022-08-05T12:16:30.421Z,35.80
2022-08-05T12:18:59.100Z,35.70
2022-08-05T12:21:30.202Z,35.80
2022-08-05T12:24:04.562Z,35.80
2022-08-05T12:26:34.714Z,36.00
2022-08-05T12:29:03.566Z,36.00
2022-08-05T12:31:46.081Z,35.90
2022-08-05T12:34:21.076Z,35.90
2022-08-05T12:36:51.184Z,35.80
2022-08-05T12:39:20.775Z,35.80
2022-08-05T12:41:49.302Z,35.90
2022-08-05T12:44:33.161Z,36.00
2022-08-05T12:47:04.146Z,36.00
2022-08-05T12:50:03.316Z,36.00
2022-08-05T12:52:38.673Z,35.90
2022-08-05T12:55:22.483Z,35.90
2022-08-05T12:58:50.016Z,36.00
2022-08-05T13:02:01.453Z,36.10
2022-08-05T13:03:38.977Z,36.30
2022-08-05T13:06:13.848Z,36.50
2022-08-05T13:08:46.060Z,36.70
2022-08-05T13:12:02.352Z,36.60
2022-08-05T13:14:36.371Z,36.40
2022-08-05T13:17:09.840Z,36.10
2022-08-05T13:19:51.642Z,36.00
2022-08-05T13:22:27.985Z,35.90
2022-08-05T13:25:00.737Z,35.70
2022-08-05T13:27:37.376Z,35.50
2022-08-05T13:30:33.561Z,35.40
2022-08-05T13:34:21.275Z,35.30
2022-08-05T13:36:06.401Z,35.30
2022-08-05T13:38:42.302Z,35.30
2022-08-05T13:41:11.802Z,35.00
2022-08-05T13:43:45.923Z,35.00
2022-08-05T13:46:43.751Z,34.80
2022-08-05T13:49:12.996Z,34.60
2022-08-05T13:51:46.559Z,34.40
2022-08-05T13:54:16.621Z,34.20
2022-08-05T13:56:50.797Z,34.10
2022-08-05T13:59:24.276Z,33.90
2022-08-05T14:01:56.497Z,33.80
2022-08-05T14:04:49.081Z,33.70
2022-08-05T14:07:56.996Z,33.60
2022-08-05T14:10:31.139Z,33.50
2022-08-05T14:13:00.085Z,33.40
2022-08-05T14:16:07.848Z,33.30
2022-08-05T14:18:23.386Z,33.30
2022-08-05T14:20:54.484Z,33.10
2022-08-05T14:23:26.637Z,33.00
2022-08-05T14:25:59.072Z,32.90
2022-08-05T14:28:29.027Z,32.90
2022-08-05T14:30:57.773Z,32.80
2022-08-05T14:33:26.380Z,32.70
2022-08-05T14:35:55.046Z,32.70
2022-08-05T14:38:32.041Z,32.70
2022-08-05T14:41:06.304Z,32.80
2022-08-05T14:44:00.073Z,32.90
2022-08-05T14:46:27.993Z,32.90
2022-08-05T14:48:58.532Z,32.90
2022-08-05T14:51:30.793Z,32.90
2022-08-05T14:54:27.770Z,32.90
2022-08-05T14:56:51.045Z,32.90
2022-08-05T14:59:23.609Z,32.80
2022-08-05T15:01:53.751Z,32.80
2022-08-05T15:04:22.885Z,32.70
2022-08-05T15:06:51.482Z,32.70
2022-08-05T15:09:54.100Z,32.60
2022-08-05T15:12:16.447Z,32.60
2022-08-05T15:14:50.139Z,32.60
2022-08-05T15:17:46.815Z,32.60
2022-08-05T15:20:15.695Z,32.50
2022-08-05T15:22:52.320Z,32.50
2022-08-05T15:25:41.370Z,32.40
2022-08-05T15:28:14.988Z,32.40
2022-08-05T15:30:46.235Z,32.30
2022-08-05T15:34:05.291Z,32.30
2022-08-05T15:36:04.575Z,32.20
2022-08-05T15:38:40.940Z,32.20
2022-08-05T15:41:21.973Z,32.10
2022-08-05T15:43:52.328Z,32.00
2022-08-05T15:46:25.119Z,32.10
2022-08-05T15:49:00.810Z,32.00
2022-08-05T15:52:09.996Z,31.90
2022-08-05T15:54:34.713Z,31.80
2022-08-05T15:57:07.379Z,31.70
2022-08-05T15:59:38.147Z,31.60
2022-08-05T16:02:09.647Z,31.50
2022-08-05T16:04:43.981Z,31.40
2022-08-05T16:07:13.343Z,31.40
2022-08-05T16:09:43.613Z,31.20
2022-08-05T16:12:13.706Z,31.20
2022-08-05T16:14:44.046Z,31.10
2022-08-05T16:17:13.807Z,31.10
2022-08-05T16:20:04.168Z,30.90
2022-08-05T16:22:50.616Z,30.90
2022-08-05T16:25:19.229Z,30.80
2022-08-05T16:28:02.125Z,30.70
2022-08-05T16:30:36.110Z,30.70
2022-08-05T16:33:05.083Z,30.60
2022-08-05T16:35:42.018Z,30.50
2022-08-05T16:38:24.728Z,30.40
2022-08-05T16:41:00.703Z,30.30
2022-08-05T16:43:31.997Z,30.20
2022-08-05T16:46:05.295Z,30.20
2022-08-05T16:48:38.386Z,30.10
2022-08-05T16:51:09.636Z,30.00
2022-08-05T16:54:05.728Z,29.90
2022-08-05T16:56:29.591Z,29.90
2022-08-05T16:59:00.961Z,29.80
2022-08-05T17:01:54.221Z,29.70
2022-08-05T17:04:43.246Z,29.60
2022-08-05T17:07:11.874Z,29.50
2022-08-05T17:09:58.228Z,29.50
2022-08-05T17:12:50.457Z,29.40
2022-08-05T17:15:19.452Z,29.40
2022-08-05T17:18:07.252Z,29.30
2022-08-05T17:20:44.215Z,29.20
2022-08-05T17:24:05.631Z,29.20
2022-08-05T17:26:03.038Z,29.10
2022-08-05T17:28:31.675Z,29.10
2022-08-05T17:31:08.413Z,29.10
2022-08-05T17:33:51.008Z,29.00
2022-08-05T17:36:33.881Z,28.90
2022-08-05T17:39:05.201Z,28.90
2022-08-05T17:42:17.919Z,28.80
2022-08-05T17:44:50.161Z,28.90
2022-08-05T17:47:22.261Z,28.80
2022-08-05T17:50:03.788Z,28.70
2022-08-05T17:52:54.653Z,28.70
2022-08-05T17:55:27.278Z,28.60
2022-08-05T17:58:03.045Z,28.50
2022-08-05T18:00:32.959Z,28.50
2022-08-05T18:03:04.142Z,28.50
2022-08-05T18:05:36.806Z,28.50
2022-08-05T18:08:06.183Z,28.40
2022-08-05T18:10:35.173Z,28.40
2022-08-05T18:13:12.193Z,28.30
2022-08-05T18:15:41.216Z,28.30
2022-08-05T18:18:11.613Z,28.20
2022-08-05T18:20:40.442Z,28.20
2022-08-05T18:23:12.410Z,28.00
2022-08-05T18:25:45.403Z,28.10
2022-08-05T18:28:16.267Z,28.00
2022-08-05T18:30:45.965Z,27.90
2022-08-05T18:33:22.991Z,27.90
2022-08-05T18:36:15.363Z,27.80
2022-08-05T18:38:44.357Z,27.80
2022-08-05T18:41:54.170Z,27.70
2022-08-05T18:44:06.353Z,27.70
2022-08-05T18:46:36.498Z,27.70
2022-08-05T18:49:20.174Z,27.70
2022-08-05T18:52:08.968Z,27.70
2022-08-05T18:54:41.189Z,27.70
2022-08-05T18:57:36.269Z,27.70
2022-08-05T19:00:19.945Z,27.70
2022-08-05T19:02:49.553Z,27.70
2022-08-05T19:06:11.890Z,27.70
2022-08-05T19:08:31.294Z,27.70
2022-08-05T19:11:04.686Z,27.70
2022-08-05T19:13:36.959Z,27.60
2022-08-05T19:16:25.116Z,27.60
2022-08-05T19:18:56.606Z,27.60
2022-08-05T19:21:34.477Z,27.60
2022-08-05T19:24:08.989Z,27.60
2022-08-05T19:26:43.899Z,27.60
2022-08-05T19:29:26.726Z,27.50
2022-08-05T19:32:08.689Z,27.50
2022-08-05T19:34:59.031Z,27.50
2022-08-05T19:37:47.349Z,27.40
2022-08-05T19:40:24.568Z,27.40
2022-08-05T19:43:04.731Z,27.40
2022-08-05T19:45:36.837Z,27.40
2022-08-05T19:48:06.529Z,27.30
2022-08-05T19:50:35.300Z,27.30
2022-08-05T19:53:09.411Z,27.20
2022-08-05T19:56:14.278Z,27.30
2022-08-05T19:58:30.109Z,27.20
2022-08-05T20:00:59.185Z,27.20
2022-08-05T20:03:40.634Z,27.20
2022-08-05T20:06:29.604Z,27.20
2022-08-05T20:09:06.093Z,27.10
2022-08-05T20:11:42.638Z,27.10
2022-08-05T20:14:26.596Z,27.10
2022-08-05T20:16:56.588Z,27.10
2022-08-05T20:19:25.193Z,27.00
2022-08-05T20:22:23.106Z,27.00
2022-08-05T20:24:57.182Z,27.00
2022-08-05T20:27:27.409Z,27.00
2022-08-05T20:30:11.613Z,27.00
2022-08-05T20:32:58.631Z,26.90
2022-08-05T20:35:27.173Z,26.90
2022-08-05T20:38:05.419Z,26.90
2022-08-05T20:40:37.327Z,26.80
2022-08-05T20:43:06.496Z,26.80
2022-08-05T20:45:55.865Z,26.80
2022-08-05T20:48:23.707Z,26.70
2022-08-05T20:50:53.416Z,26.70
2022-08-05T20:53:36.477Z,26.70
2022-08-05T20:56:27.681Z,26.70
2022-08-05T20:59:04.038Z,26.60
2022-08-05T21:01:43.217Z,26.60
2022-08-05T21:04:11.784Z,26.60
2022-08-05T21:06:45.337Z,26.50
2022-08-05T21:09:15.000Z,26.50
2022-08-05T21:12:07.533Z,26.50
2022-08-05T21:14:35.008Z,26.50
2022-08-05T21:17:04.928Z,26.50
2022-08-05T21:19:47.231Z,26.50
2022-08-05T21:22:21.620Z,26.40
2022-08-05T21:24:52.503Z,26.40
2022-08-05T21:27:25.306Z,26.40
2022-08-05T21:29:56.198Z,26.40
2022-08-05T21:32:27.073Z,26.30
2022-08-05T21:35:18.069Z,26.30
2022-08-05T21:37:53.168Z,26.30
2022-08-05T21:40:23.358Z,26.20
2022-08-05T21:42:54.201Z,26.20
2022-08-05T21:45:56.191Z,26.10
2022-08-05T21:48:16.473Z,26.10
2022-08-05T21:50:54.073Z,26.10
2022-08-05T21:53:27.051Z,26.10
2022-08-05T21:56:05.841Z,26.10
2022-08-05T21:58:57.070Z,26.00
2022-08-05T22:01:27.051Z,26.00
2022-08-05T22:03:56.130Z,26.00
2022-08-05T22:06:34.876Z,25.90
2022-08-05T22:09:14.045Z,25.90
2022-08-05T22:11:46.688Z,25.90
2022-08-05T22:14:35.393Z,25.90
2022-08-05T22:17:07.430Z,25.90
2022-08-05T22:20:00.332Z,25.90
2022-08-05T22:22:28.137Z,25.90
2022-08-05T22:25:21.085Z,25.80
2022-08-05T22:28:04.907Z,25.70
2022-08-05T22:30:44.162Z,25.80
2022-08-05T22:33:57.849Z,25.90
2022-08-05T22:36:31.108Z,25.80
2022-08-05T22:39:09.098Z,25.70
2022-08-05T22:42:11.676Z,25.70
2022-08-05T22:44:28.915Z,25.70
2022-08-05T22:46:58.885Z,25.60
2022-08-05T22:50:19.282Z,25.70
2022-08-05T22:52:22.795Z,25.60
2022-08-05T22:55:21.349Z,25.50
2022-08-05T22:57:50.810Z,25.50
2022-08-05T23:00:20.845Z,25.50
2022-08-05T23:03:13.486Z,25.50
2022-08-05T23:05:42.431Z,25.50
2022-08-05T23:08:31.165Z,25.50
2022-08-05T23:10:59.743Z,25.50
2022-08-05T23:13:28.997Z,25.40
2022-08-05T23:15:58.553Z,25.40
2022-08-05T23:18:29.562Z,25.40
2022-08-05T23:21:01.090Z,25.40
2022-08-05T23:23:29.959Z,25.40
2022-08-05T23:26:02.543Z,25.40
2022-08-05T23:28:31.537Z,25.30
2022-08-05T23:31:02.234Z,25.30
2022-08-05T23:34:05.690Z,25.20
2022-08-05T23:36:40.054Z,25.20
2022-08-05T23:39:17.080Z,25.40
2022-08-05T23:41:52.536Z,25.20
2022-08-05T23:44:27.896Z,25.20
2022-08-05T23:47:00.220Z,25.20
2022-08-05T23:49:34.103Z,25.10
2022-08-05T23:52:36.003Z,25.10
2022-08-05T23:55:07.227Z,25.10
2022-08-05T23:57:37.837Z,25.10
